Time;durP1;ratioP1;P1;durP2;ratioP2;P2;SDS_P1;SDS_P2;PMS_P1;PMS_P2;Temp;Humidity;BMP_temperature;BMP_pressure;BME280_temperature;BME280_humidity;BME280_pressure;Samples;Min_cycle;Max_cycle;Signal;HPM_P1;HPM_P2
2021/05/24 00:00:22;;;;;;;1.65;1.55;;;11.40;99.90;;;;;;5032203;28;20040;-48
2021/05/24 00:02:49;;;;;;;1.83;1.67;;;11.40;99.90;;;;;;5032602;28;20482;-51
2021/05/24 00:05:20;;;;;;;4.03;1.63;;;11.30;99.90;;;;;;5032991;28;20079;-47
2021/05/24 00:07:46;;;;;;;3.58;1.95;;;11.30;99.90;;;;;;5032606;28;20032;-50
2021/05/24 00:10:15;;;;;;;3.28;2.22;;;11.20;99.90;;;;;;5032458;28;20096;-46
2021/05/24 00:12:46;;;;;;;1.88;1.77;;;11.20;99.90;;;;;;5033174;28;20581;-51
2021/05/24 00:15:17;;;;;;;5.78;1.80;;;11.20;99.90;;;;;;5033345;28;20045;-47
2021/05/24 00:17:42;;;;;;;3.10;1.75;;;11.20;99.90;;;;;;5033352;28;20454;-46
2021/05/24 00:20:08;;;;;;;3.13;1.77;;;11.10;99.90;;;;;;5032575;28;20030;-45
2021/05/24 00:22:34;;;;;;;2.72;2.53;;;11.10;99.90;;;;;;5031380;28;20026;-48
2021/05/24 00:25:00;;;;;;;2.42;1.95;;;11.10;99.90;;;;;;5030460;28;20159;-45
2021/05/24 00:27:25;;;;;;;2.83;1.80;;;11.00;99.90;;;;;;5032627;28;20032;-46
2021/05/24 00:29:51;;;;;;;2.33;1.95;;;10.90;99.90;;;;;;5041090;28;20156;-51
2021/05/24 00:32:16;;;;;;;3.03;1.90;;;10.90;99.90;;;;;;5035430;28;20017;-48
2021/05/24 00:34:42;;;;;;;2.17;1.27;;;10.90;99.90;;;;;;5051210;28;20025;-48
2021/05/24 00:37:07;;;;;;;3.30;2.15;;;10.80;99.90;;;;;;5049768;28;20057;-45
2021/05/24 00:39:33;;;;;;;2.92;2.03;;;10.80;99.90;;;;;;5051197;28;20031;-51
2021/05/24 00:41:59;;;;;;;2.42;2.03;;;10.70;99.90;;;;;;5050930;28;20429;-49
2021/05/24 00:44:25;;;;;;;3.00;2.42;;;10.70;99.90;;;;;;5031353;28;20036;-47
2021/05/24 00:46:50;;;;;;;4.28;1.92;;;10.70;99.90;;;;;;5032094;28;20021;-45
2021/05/24 00:49:16;;;;;;;4.78;2.53;;;10.70;99.90;;;;;;5032533;28;20084;-48
2021/05/24 00:51:41;;;;;;;3.80;2.28;;;10.70;99.90;;;;;;5032452;28;20025;-49
2021/05/24 00:54:07;;;;;;;6.15;2.25;;;10.60;99.90;;;;;;5048095;28;20039;-47
2021/05/24 00:56:33;;;;;;;3.47;2.40;;;10.60;99.90;;;;;;5052203;28;20028;-48
2021/05/24 00:58:58;;;;;;;5.53;2.58;;;10.50;99.90;;;;;;5050062;28;20025;-47
2021/05/24 01:01:28;;;;;;;3.83;2.42;;;10.50;99.90;;;;;;5051432;28;20047;-47
2021/05/24 01:03:56;;;;;;;7.35;2.60;;;10.40;99.90;;;;;;5037921;28;20184;-49
2021/05/24 01:06:22;;;;;;;4.78;2.10;;;10.40;99.90;;;;;;5033182;28;20052;-45
2021/05/24 01:08:47;;;;;;;2.33;2.13;;;10.30;99.90;;;;;;5029807;28;20059;-45
2021/05/24 01:11:12;;;;;;;2.70;2.03;;;10.30;99.90;;;;;;5031849;28;20437;-47
2021/05/24 01:13:38;;;;;;;2.70;2.50;;;10.30;99.90;;;;;;5052396;28;20486;-48
2021/05/24 01:16:04;;;;;;;2.45;1.90;;;10.20;99.90;;;;;;5053411;28;20036;-49
2021/05/24 01:18:30;;;;;;;2.20;2.00;;;10.10;99.90;;;;;;5035385;28;20041;-47
2021/05/24 01:20:55;;;;;;;9.48;2.55;;;10.10;99.90;;;;;;5033264;28;20037;-48
2021/05/24 01:23:26;;;;;;;4.32;3.03;;;10.10;99.90;;;;;;5034023;28;20057;-48
2021/05/24 01:25:52;;;;;;;4.05;2.80;;;10.10;99.90;;;;;;5033448;28;20057;-50
2021/05/24 01:28:19;;;;;;;4.15;2.38;;;10.10;99.90;;;;;;5050725;28;20048;-51
2021/05/24 01:30:45;;;;;;;2.65;2.22;;;10.10;99.90;;;;;;5053022;28;20113;-49
2021/05/24 01:33:11;;;;;;;4.95;2.58;;;10.10;99.90;;;;;;5040809;28;20081;-54
2021/05/24 01:35:38;;;;;;;4.88;1.98;;;10.10;99.90;;;;;;5052962;28;20028;-51
2021/05/24 01:38:06;;;;;;;2.58;2.38;;;10.00;99.90;;;;;;5038091;28;20044;-55
2021/05/24 01:40:32;;;;;;;2.30;2.10;;;10.00;99.90;;;;;;5032908;28;20096;-46
2021/05/24 01:42:59;;;;;;;2.50;2.30;;;10.00;99.90;;;;;;5041749;28;20025;-46
2021/05/24 01:45:26;;;;;;;4.60;2.50;;;10.00;99.90;;;;;;5052588;28;20032;-49
2021/05/24 01:47:52;;;;;;;5.38;2.05;;;9.90;99.90;;;;;;5041036;28;20058;-48
2021/05/24 01:50:18;;;;;;;4.65;2.90;;;9.90;99.90;;;;;;5032607;28;20526;-51
2021/05/24 01:52:43;;;;;;;3.53;2.42;;;9.90;99.90;;;;;;5033797;28;20033;-49
2021/05/24 01:55:10;;;;;;;4.57;2.63;;;9.90;99.90;;;;;;5032375;28;20037;-46
2021/05/24 01:57:37;;;;;;;5.60;2.90;;;9.80;99.90;;;;;;5040293;28;20024;-50
2021/05/24 02:00:09;;;;;;;4.70;3.28;;;9.90;99.90;;;;;;5052563;28;20025;-50
2021/05/24 02:02:38;;;;;;;6.30;2.65;;;9.90;99.90;;;;;;5045116;28;20036;-47
2021/05/24 02:05:04;;;;;;;4.25;2.40;;;9.90;99.90;;;;;;5032262;28;20029;-50
2021/05/24 02:07:31;;;;;;;3.28;2.70;;;9.80;99.90;;;;;;5033493;28;20040;-47
2021/05/24 02:09:56;;;;;;;3.25;2.47;;;9.70;99.90;;;;;;5046770;28;20627;-45
2021/05/24 02:12:23;;;;;;;2.95;2.65;;;9.60;99.90;;;;;;5044509;28;20033;-48
2021/05/24 02:14:52;;;;;;;5.32;2.78;;;9.50;99.90;;;;;;5032081;28;20248;-48
2021/05/24 02:17:18;;;;;;;9.77;2.85;;;9.60;99.90;;;;;;5032417;28;20134;-50
2021/05/24 02:19:46;;;;;;;5.30;2.83;;;9.60;99.90;;;;;;5032861;28;20036;-46
2021/05/24 02:22:12;;;;;;;3.38;2.90;;;9.50;99.90;;;;;;5031939;28;20021;-49
2021/05/24 02:24:38;;;;;;;3.20;2.40;;;9.60;99.90;;;;;;5032095;28;20025;-46
2021/05/24 02:27:04;;;;;;;2.83;2.63;;;9.50;99.90;;;;;;5032328;28;20074;-46
2021/05/24 02:29:29;;;;;;;4.85;2.63;;;9.50;99.90;;;;;;5032574;28;20036;-49
2021/05/24 02:31:55;;;;;;;4.57;2.65;;;9.50;99.90;;;;;;5031960;28;20056;-45
2021/05/24 02:34:20;;;;;;;3.53;3.13;;;9.60;99.90;;;;;;5031657;28;20075;-47
2021/05/24 02:36:46;;;;;;;4.18;3.13;;;9.60;99.90;;;;;;5031829;28;20161;-45
2021/05/24 02:39:11;;;;;;;2.70;2.33;;;9.50;99.90;;;;;;5031698;28;20034;-47
2021/05/24 02:41:37;;;;;;;3.72;2.65;;;9.70;99.90;;;;;;5031792;28;20091;-46
2021/05/24 02:44:04;;;;;;;3.65;2.53;;;9.60;99.90;;;;;;5031772;28;20029;-50
2021/05/24 02:46:30;;;;;;;2.88;2.55;;;9.50;99.90;;;;;;5031606;28;20045;-47
2021/05/24 02:48:56;;;;;;;5.07;2.55;;;9.50;99.90;;;;;;5031762;28;20546;-45
2021/05/24 02:51:21;;;;;;;4.22;2.50;;;9.60;99.90;;;;;;5031557;28;20060;-50
2021/05/24 02:53:47;;;;;;;4.43;2.58;;;9.50;99.90;;;;;;5030811;28;20025;-45
2021/05/24 02:56:12;;;;;;;9.73;6.20;;;9.50;99.90;;;;;;5031631;28;20285;-43
2021/05/24 02:58:38;;;;;;;9.27;4.05;;;9.50;99.90;;;;;;5031514;28;20037;-47
2021/05/24 03:01:03;;;;;;;6.75;4.20;;;9.50;99.90;;;;;;5031567;28;20025;-48
2021/05/24 03:03:31;;;;;;;5.00;2.75;;;9.50;99.90;;;;;;5031421;28;20422;-45
2021/05/24 03:05:56;;;;;;;3.90;2.25;;;9.50;99.90;;;;;;5031786;28;20047;-47
2021/05/24 03:08:22;;;;;;;2.33;2.13;;;9.40;99.90;;;;;;5034225;28;20379;-49
2021/05/24 03:10:48;;;;;;;2.97;2.47;;;9.40;99.90;;;;;;5033737;28;20025;-47
2021/05/24 03:13:13;;;;;;;5.32;2.60;;;9.40;99.90;;;;;;5013427;28;20025;-50
2021/05/24 03:15:40;;;;;;;5.45;2.40;;;9.50;99.90;;;;;;5031407;28;20424;-46
2021/05/24 03:18:05;;;;;;;4.07;2.50;;;9.50;99.90;;;;;;5031523;28;20036;-46
2021/05/24 03:20:31;;;;;;;3.75;2.28;;;9.50;99.90;;;;;;5031374;28;20029;-44
2021/05/24 03:22:57;;;;;;;7.57;2.80;;;9.50;99.90;;;;;;5031471;28;20474;-44
2021/05/24 03:25:22;;;;;;;4.20;2.33;;;9.60;99.90;;;;;;5030958;28;20025;-45
2021/05/24 03:27:48;;;;;;;5.38;2.30;;;9.50;99.90;;;;;;5030983;28;20109;-51
2021/05/24 03:30:15;;;;;;;8.95;3.03;;;9.50;99.90;;;;;;5031844;28;20033;-44
2021/05/24 03:32:41;;;;;;;4.82;2.53;;;9.40;99.90;;;;;;5030678;28;20026;-44
2021/05/24 03:35:08;;;;;;;6.10;2.33;;;9.30;99.90;;;;;;5030489;28;20021;-46
2021/05/24 03:37:34;;;;;;;2.58;2.38;;;9.20;99.90;;;;;;5030848;28;20458;-49
2021/05/24 03:39:59;;;;;;;2.10;2.00;;;9.20;99.90;;;;;;5030898;28;20064;-47
2021/05/24 03:42:25;;;;;;;5.00;2.38;;;9.20;99.90;;;;;;5030927;28;20026;-47
2021/05/24 03:44:51;;;;;;;2.75;2.53;;;9.10;99.90;;;;;;5030640;28;20104;-46
2021/05/24 03:47:16;;;;;;;5.88;2.58;;;9.10;99.90;;;;;;5030778;28;20025;-49
2021/05/24 03:49:45;;;;;;;3.47;2.60;;;9.20;99.90;;;;;;5031040;28;20022;-45
2021/05/24 03:52:15;;;;;;;2.65;2.10;;;9.20;99.90;;;;;;5031094;28;20029;-44
2021/05/24 03:54:41;;;;;;;4.50;2.63;;;9.20;99.90;;;;;;5030505;28;20387;-46
2021/05/24 03:57:08;;;;;;;2.70;2.50;;;9.10;99.90;;;;;;5030650;28;20033;-49
2021/05/24 03:59:34;;;;;;;2.45;2.15;;;9.10;99.90;;;;;;5030590;28;20053;-45
2021/05/24 04:01:59;;;;;;;2.92;2.50;;;9.10;99.90;;;;;;5030963;28;20065;-45
2021/05/24 04:04:25;;;;;;;6.28;2.38;;;9.10;99.90;;;;;;5013081;28;20496;-47
2021/05/24 04:06:54;;;;;;;3.80;1.75;;;9.10;99.90;;;;;;5030794;28;20091;-51
2021/05/24 04:09:20;;;;;;;5.38;2.58;;;9.20;99.90;;;;;;5031109;28;20020;-44
2021/05/24 04:11:46;;;;;;;2.33;2.13;;;9.30;99.90;;;;;;5030902;28;20052;-44
2021/05/24 04:14:12;;;;;;;2.25;2.00;;;9.40;99.90;;;;;;5030631;28;20018;-45
2021/05/24 04:16:37;;;;;;;2.47;2.20;;;9.40;99.90;;;;;;5030592;28;20025;-46
2021/05/24 04:19:10;;;;;;;5.05;2.53;;;9.40;99.90;;;;;;5030382;28;20036;-51
2021/05/24 04:21:36;;;;;;;3.40;2.00;;;9.40;99.90;;;;;;5030775;28;20018;-48
2021/05/24 04:24:02;;;;;;;1.98;1.65;;;9.50;99.90;;;;;;5030132;28;20021;-49
2021/05/24 04:26:27;;;;;;;3.70;1.92;;;9.40;99.90;;;;;;5030101;28;20514;-52
2021/05/24 04:28:53;;;;;;;6.03;1.90;;;9.50;99.90;;;;;;5012353;28;20044;-46
2021/05/24 04:31:18;;;;;;;2.92;2.05;;;9.40;99.90;;;;;;5030255;28;20657;-47
2021/05/24 04:33:44;;;;;;;2.22;1.90;;;9.40;99.90;;;;;;5030052;28;20018;-43
2021/05/24 04:36:09;;;;;;;1.88;1.77;;;9.40;99.90;;;;;;5030257;28;20022;-51
2021/05/24 04:38:35;;;;;;;2.72;1.98;;;9.40;99.90;;;;;;5030441;28;20030;-51
2021/05/24 04:41:00;;;;;;;3.65;1.63;;;9.50;99.90;;;;;;5030290;28;20021;-47
2021/05/24 04:43:32;;;;;;;2.65;1.92;;;9.60;99.90;;;;;;5029781;28;20393;-49
2021/05/24 04:45:57;;;;;;;4.85;2.22;;;9.60;99.90;;;;;;5031625;28;20033;-48
2021/05/24 04:48:23;;;;;;;1.77;1.60;;;9.80;99.90;;;;;;5033890;28;20086;-45
2021/05/24 04:50:48;;;;;;;2.13;1.85;;;10.00;99.90;;;;;;5033945;28;20022;-46
2021/05/24 04:53:14;;;;;;;5.13;1.83;;;10.30;99.90;;;;;;5033512;28;20022;-50
2021/05/24 04:55:40;;;;;;;2.30;2.10;;;10.60;99.90;;;;;;5033887;28;20121;-47
2021/05/24 04:58:06;;;;;;;2.53;2.28;;;11.00;99.90;;;;;;5033753;28;20030;-46
2021/05/24 05:00:33;;;;;;;3.35;2.28;;;11.50;99.80;;;;;;5034076;28;20105;-50
2021/05/24 05:02:59;;;;;;;2.15;1.83;;;11.70;99.80;;;;;;5034580;28;20037;-51
2021/05/24 05:05:25;;;;;;;3.13;2.40;;;11.70;99.20;;;;;;5033450;28;20025;-49
2021/05/24 05:07:51;;;;;;;4.53;1.90;;;11.70;99.80;;;;;;5033558;28;20503;-44
2021/05/24 05:10:16;;;;;;;3.08;2.00;;;11.70;99.60;;;;;;5033419;28;20131;-47
2021/05/24 05:12:42;;;;;;;2.00;1.90;;;11.70;99.90;;;;;;5034547;28;20032;-48
2021/05/24 05:15:08;;;;;;;5.30;2.92;;;11.70;99.80;;;;;;5033192;28;20026;-49
2021/05/24 05:17:34;;;;;;;2.55;1.88;;;11.70;99.70;;;;;;5033458;28;20033;-46
2021/05/24 05:19:59;;;;;;;3.88;2.40;;;11.60;99.90;;;;;;5033182;28;20087;-45
2021/05/24 05:22:25;;;;;;;2.40;2.20;;;11.50;99.90;;;;;;5032735;28;20394;-46
2021/05/24 05:24:51;;;;;;;3.60;2.03;;;11.50;99.90;;;;;;5033027;28;20025;-46
2021/05/24 05:27:16;;;;;;;4.78;2.60;;;11.30;99.90;;;;;;5031914;28;20037;-48
2021/05/24 05:29:42;;;;;;;4.57;1.80;;;11.30;99.90;;;;;;5033001;28;20037;-52
2021/05/24 05:32:08;;;;;;;2.55;2.35;;;11.30;99.90;;;;;;5033137;28;20419;-48
2021/05/24 05:34:33;;;;;;;3.05;2.17;;;11.40;99.90;;;;;;5032857;28;20057;-49
2021/05/24 05:36:59;;;;;;;3.17;2.22;;;11.60;99.90;;;;;;5033169;28;20041;-49
2021/05/24 05:39:24;;;;;;;3.17;2.30;;;11.90;99.70;;;;;;5033226;28;20522;-47
2021/05/24 05:41:50;;;;;;;2.13;2.00;;;12.10;99.60;;;;;;5032907;28;20064;-48
2021/05/24 05:44:15;;;;;;;3.22;2.80;;;12.20;99.90;;;;;;5032596;28;20087;-45
2021/05/24 05:46:41;;;;;;;2.28;1.70;;;12.30;99.70;;;;;;5032888;28;20037;-44
2021/05/24 05:49:06;;;;;;;3.35;2.70;;;12.40;99.20;;;;;;5032641;28;20033;-48
2021/05/24 05:51:32;;;;;;;4.72;2.45;;;12.40;99.40;;;;;;5032798;28;20425;-45
2021/05/24 05:53:58;;;;;;;3.47;2.28;;;12.50;99.20;;;;;;5032519;28;20497;-45
2021/05/24 05:56:23;;;;;;;9.93;2.60;;;12.50;99.40;;;;;;5032259;28;20048;-45
2021/05/24 05:58:49;;;;;;;2.83;2.47;;;12.60;99.70;;;;;;5032895;28;20393;-44
2021/05/24 06:01:14;;;;;;;4.00;2.63;;;12.90;99.40;;;;;;5032704;28;20060;-48
2021/05/24 06:03:40;;;;;;;4.63;2.28;;;13.30;98.60;;;;;;5032204;28;20033;-48
2021/05/24 06:06:06;;;;;;;3.22;2.25;;;13.70;97.40;;;;;;5014680;28;20032;-45
2021/05/24 06:08:31;;;;;;;7.70;2.78;;;14.10;96.90;;;;;;5032511;28;20112;-44
2021/05/24 06:10:57;;;;;;;4.80;3.03;;;14.10;96.20;;;;;;5032522;28;20057;-49
2021/05/24 06:13:23;;;;;;;3.00;2.42;;;14.10;96.50;;;;;;5032153;28;20021;-45
2021/05/24 06:15:50;;;;;;;2.92;2.30;;;14.20;96.60;;;;;;5032963;28;20028;-44
2021/05/24 06:18:15;;;;;;;4.85;2.42;;;14.10;96.80;;;;;;5032549;28;20508;-46
2021/05/24 06:20:43;;;;;;;8.13;2.83;;;13.90;97.00;;;;;;5032413;28;20120;-44
2021/05/24 06:23:10;;;;;;;4.43;2.58;;;13.60;97.50;;;;;;5034589;28;20030;-44
2021/05/24 06:25:36;;;;;;;4.72;2.80;;;13.50;97.80;;;;;;5040840;28;20022;-48
2021/05/24 06:28:02;;;;;;;4.10;2.42;;;13.40;98.40;;;;;;5033721;28;20053;-46
2021/05/24 06:30:28;;;;;;;4.70;2.50;;;13.30;98.90;;;;;;5032965;28;20072;-47
2021/05/24 06:32:54;;;;;;;2.30;2.08;;;13.40;99.10;;;;;;5049128;28;20105;-46
2021/05/24 06:35:21;;;;;;;2.70;2.40;;;13.50;99.40;;;;;;5051610;28;20028;-45
2021/05/24 06:37:46;;;;;;;5.32;2.63;;;13.60;99.30;;;;;;5039693;28;20029;-46
2021/05/24 06:40:13;;;;;;;2.83;2.42;;;13.80;98.90;;;;;;5042455;28;20059;-44
2021/05/24 06:42:38;;;;;;;3.55;2.50;;;13.90;98.40;;;;;;5033941;28;20029;-46
2021/05/24 06:45:05;;;;;;;3.53;3.05;;;13.90;98.40;;;;;;5037724;28;20055;-45
2021/05/24 06:47:31;;;;;;;7.15;2.42;;;13.90;98.20;;;;;;5031550;28;20025;-46
2021/05/24 06:49:56;;;;;;;3.47;2.35;;;14.10;98.20;;;;;;5032774;28;20100;-47
2021/05/24 06:52:22;;;;;;;6.50;3.10;;;14.20;98.30;;;;;;5039320;28;20032;-43
2021/05/24 06:54:47;;;;;;;7.22;2.65;;;14.40;98.20;;;;;;5050946;28;20029;-52
2021/05/24 06:57:13;;;;;;;2.65;2.42;;;14.50;97.80;;;;;;5050120;28;20032;-47
2021/05/24 06:59:38;;;;;;;4.50;2.58;;;14.60;97.10;;;;;;5051544;28;20025;-51
2021/05/24 07:02:04;;;;;;;6.47;3.00;;;14.60;97.10;;;;;;5047305;28;20026;-47
2021/05/24 07:04:30;;;;;;;5.07;2.42;;;14.50;96.80;;;;;;5031371;28;20021;-46
2021/05/24 07:06:56;;;;;;;5.57;3.10;;;14.50;96.50;;;;;;5037153;28;20248;-49
2021/05/24 07:09:21;;;;;;;5.38;2.55;;;14.30;96.80;;;;;;5050907;28;20029;-48
2021/05/24 07:11:47;;;;;;;4.72;2.60;;;14.10;96.80;;;;;;5044159;28;20673;-48
2021/05/24 07:14:14;;;;;;;4.55;2.60;;;14.00;97.50;;;;;;5031656;28;20510;-46
2021/05/24 07:16:39;;;;;;;3.40;2.80;;;14.00;97.90;;;;;;5037513;28;20486;-45
2021/05/24 07:19:05;;;;;;;2.83;2.50;;;14.10;98.30;;;;;;5051361;28;20147;-46
2021/05/24 07:21:31;;;;;;;3.58;2.95;;;14.20;97.80;;;;;;5050032;28;20032;-45
2021/05/24 07:23:56;;;;;;;2.90;2.50;;;14.30;97.50;;;;;;5051903;28;20028;-49
2021/05/24 07:26:22;;;;;;;2.47;2.22;;;14.40;97.00;;;;;;5048633;28;20131;-50
2021/05/24 07:28:47;;;;;;;4.00;2.53;;;14.40;96.80;;;;;;5033172;28;20033;-49
2021/05/24 07:31:13;;;;;;;7.00;2.50;;;14.30;97.10;;;;;;5037739;28;20021;-47
2021/05/24 07:33:38;;;;;;;4.80;2.53;;;14.20;97.20;;;;;;5051693;28;20083;-51
2021/05/24 07:36:05;;;;;;;4.28;2.35;;;14.30;97.10;;;;;;5044095;28;20053;-51
2021/05/24 07:38:30;;;;;;;2.72;2.42;;;14.30;97.30;;;;;;5046269;28;20561;-51
2021/05/24 07:40:56;;;;;;;2.60;1.83;;;14.50;97.10;;;;;;5051563;28;20435;-46
2021/05/24 07:43:21;;;;;;;4.75;2.13;;;15.00;96.00;;;;;;5042819;28;20029;-49
2021/05/24 07:45:47;;;;;;;3.17;1.80;;;15.80;95.40;;;;;;5036537;28;20064;-47
2021/05/24 07:48:13;;;;;;;3.45;2.30;;;16.50;94.30;;;;;;5051431;28;20021;-47
2021/05/24 07:50:38;;;;;;;4.82;2.10;;;17.20;93.60;;;;;;5049617;28;20021;-49
2021/05/24 07:53:04;;;;;;;3.92;1.65;;;17.50;91.20;;;;;;5050838;28;20029;-47
2021/05/24 07:55:29;;;;;;;3.83;2.15;;;17.50;90.70;;;;;;5042189;28;20478;-45
2021/05/24 07:57:55;;;;;;;2.60;1.60;;;17.30;91.00;;;;;;5030634;28;20061;-50
2021/05/24 08:00:25;;;;;;;1.52;1.42;;;17.20;90.40;;;;;;5031625;28;20037;-49
2021/05/24 08:02:51;;;;;;;2.40;1.90;;;16.70;91.00;;;;;;5031753;28;20463;-52
2021/05/24 08:05:17;;;;;;;2.85;1.30;;;16.90;90.90;;;;;;5039949;28;20108;-51
2021/05/24 08:07:43;;;;;;;3.10;1.95;;;17.30;90.70;;;;;;5050284;28;20108;-48
2021/05/24 08:10:10;;;;;;;2.58;1.40;;;17.60;90.10;;;;;;5048857;28;20048;-51
2021/05/24 08:12:38;;;;;;;1.58;1.10;;;18.10;89.10;;;;;;5050547;28;20391;-44
2021/05/24 08:15:16;;;;;;;1.38;1.10;;;18.20;89.30;;;;;;5048331;28;20167;-50
2021/05/24 08:17:41;;;;;;;1.65;1.05;;;18.20;87.90;;;;;;5050512;28;20032;-54
2021/05/24 08:20:09;;;;;;;3.00;1.65;;;18.30;88.50;;;;;;5050328;28;20033;-46
2021/05/24 08:22:35;;;;;;;4.20;1.23;;;18.00;88.40;;;;;;5049739;28;20018;-51
2021/05/24 08:25:01;;;;;;;3.25;1.00;;;18.00;89.00;;;;;;5035085;28;20090;-48
2021/05/24 08:27:27;;;;;;;2.20;1.42;;;17.90;89.80;;;;;;5036208;28;20490;-51
2021/05/24 08:29:53;;;;;;;2.30;1.30;;;17.90;90.20;;;;;;5034833;28;20034;-47
2021/05/24 08:32:18;;;;;;;4.13;1.60;;;18.50;90.00;;;;;;5033782;28;20482;-46
2021/05/24 08:34:44;;;;;;;103.57;5.50;;;18.90;87.80;;;;;;5034317;28;20096;-49
2021/05/24 08:37:09;;;;;;;1.80;1.33;;;18.80;86.60;;;;;;5034058;28;20029;-47
2021/05/24 08:39:35;;;;;;;3.10;1.20;;;18.70;86.40;;;;;;5034318;28;20029;-46
2021/05/24 08:42:00;;;;;;;1.70;1.10;;;18.60;85.90;;;;;;5034813;28;20065;-50
2021/05/24 08:44:27;;;;;;;1.58;1.48;;;18.60;85.70;;;;;;5033446;28;20021;-51
2021/05/24 08:46:53;;;;;;;6.05;1.00;;;18.40;85.60;;;;;;5034356;28;20026;-48
2021/05/24 08:49:18;;;;;;;2.88;1.10;;;18.00;87.20;;;;;;5034364;28;20112;-51
2021/05/24 08:51:44;;;;;;;1.05;1.00;;;17.80;87.30;;;;;;5033895;28;20070;-50
2021/05/24 08:54:09;;;;;;;1.25;0.85;;;17.70;87.20;;;;;;5031436;28;20036;-50
2021/05/24 08:56:36;;;;;;;1.92;1.02;;;17.50;88.00;;;;;;5032000;28;20037;-53
2021/05/24 08:59:02;;;;;;;3.97;1.02;;;17.60;88.00;;;;;;5033074;28;20028;-47
2021/05/24 09:01:28;;;;;;;1.98;0.90;;;17.70;86.70;;;;;;5033675;28;20106;-45
2021/05/24 09:04:04;;;;;;;3.58;1.05;;;17.80;87.30;;;;;;5033226;28;20053;-48
2021/05/24 09:06:41;;;;;;;2.28;1.10;;;17.90;88.20;;;;;;5033818;28;20049;-48
2021/05/24 09:09:13;;;;;;;1.77;0.82;;;18.00;86.40;;;;;;5033228;28;20029;-47
2021/05/24 09:11:39;;;;;;;1.77;0.93;;;18.20;86.30;;;;;;5041756;28;20025;-48
2021/05/24 09:14:19;;;;;;;1.08;0.80;;;18.50;84.90;;;;;;5043615;28;20526;-52
2021/05/24 09:16:58;;;;;;;1.60;1.13;;;18.80;84.00;;;;;;5041894;28;20044;-49
2021/05/24 09:19:25;;;;;;;2.65;1.60;;;18.80;81.80;;;;;;5048469;28;20025;-48
2021/05/24 09:21:56;;;;;;;2.70;0.88;;;18.80;81.70;;;;;;5040342;28;20138;-49
2021/05/24 09:24:28;;;;;;;3.97;1.10;;;18.90;81.10;;;;;;5050925;28;20043;-56
2021/05/24 09:26:55;;;;;;;0.82;0.70;;;19.00;80.80;;;;;;5057831;28;20103;-50
2021/05/24 09:29:24;;;;;;;5.13;1.10;;;19.20;79.10;;;;;;5046828;28;20029;-52
2021/05/24 09:32:20;;;;;;;2.25;0.90;;;19.40;78.70;;;;;;5060337;28;20036;-52
2021/05/24 09:34:47;;;;;;;2.00;1.00;;;19.60;78.30;;;;;;5050404;28;20502;-43
2021/05/24 09:37:14;;;;;;;1.98;1.20;;;19.70;77.50;;;;;;5047459;28;20102;-46
2021/05/24 09:39:40;;;;;;;2.15;1.48;;;19.80;77.10;;;;;;5044376;28;20025;-51
2021/05/24 09:42:08;;;;;;;4.53;1.10;;;19.90;78.40;;;;;;5052066;28;20497;-52
2021/05/24 09:44:40;;;;;;;1.15;0.90;;;20.00;77.10;;;;;;5032546;28;20033;-49
2021/05/24 09:47:06;;;;;;;5.15;1.02;;;20.30;77.00;;;;;;5043768;28;20052;-52
2021/05/24 09:49:31;;;;;;;3.00;1.10;;;20.30;73.80;;;;;;5032227;28;20414;-47
2021/05/24 09:51:59;;;;;;;1.45;1.00;;;20.30;75.10;;;;;;5046821;28;20678;-50
2021/05/24 09:54:32;;;;;;;4.32;1.15;;;20.30;72.10;;;;;;5047452;28;20025;-55
2021/05/24 09:57:03;;;;;;;3.20;1.90;;;20.20;74.10;;;;;;5038407;28;20030;-53
2021/05/24 09:59:30;;;;;;;1.75;1.00;;;20.10;72.50;;;;;;5042741;28;20057;-56
2021/05/24 10:01:58;;;;;;;3.65;1.08;;;20.30;74.50;;;;;;5051450;28;20070;-52
2021/05/24 10:04:29;;;;;;;2.80;1.15;;;20.40;73.90;;;;;;5046884;28;20183;-56
2021/05/24 10:06:56;;;;;;;2.72;0.77;;;20.40;71.10;;;;;;5051491;28;20032;-56
2021/05/24 10:09:22;;;;;;;1.65;1.08;;;20.40;73.00;;;;;;5042846;28;20017;-55
2021/05/24 10:11:50;;;;;;;4.57;1.30;;;20.50;73.60;;;;;;5031716;28;20024;-59
2021/05/24 10:14:18;;;;;;;1.80;0.60;;;20.60;73.50;;;;;;5030916;28;20168;-51
2021/05/24 10:16:48;;;;;;;2.58;0.75;;;20.50;67.60;;;;;;5030734;28;20045;-55
2021/05/24 10:19:18;;;;;;;10.52;1.15;;;20.40;67.70;;;;;;5030954;28;20526;-56
2021/05/24 10:21:49;;;;;;;4.25;1.23;;;20.20;68.50;;;;;;5041276;28;20469;-51
2021/05/24 10:24:16;;;;;;;2.20;1.00;;;20.10;70.20;;;;;;5050687;28;20313;-55
2021/05/24 10:26:43;;;;;;;2.80;0.93;;;20.20;70.10;;;;;;5050752;28;20024;-53
2021/05/24 10:29:10;;;;;;;0.70;0.70;;;20.30;73.00;;;;;;5041958;28;20079;-58
2021/05/24 10:31:36;;;;;;;4.65;0.80;;;20.30;69.70;;;;;;5047359;28;20017;-58
2021/05/24 10:34:16;;;;;;;1.65;0.57;;;20.40;68.80;;;;;;5046892;28;20479;-57
2021/05/24 10:36:43;;;;;;;1.15;0.60;;;20.50;66.50;;;;;;5030838;28;20071;-50
2021/05/24 10:39:24;;;;;;;2.85;0.98;;;20.50;65.80;;;;;;5030413;28;20463;-52
2021/05/24 10:41:51;;;;;;;1.92;0.82;;;20.30;64.80;;;;;;5030881;28;20029;-55
2021/05/24 10:44:45;;;;;;;1.40;0.50;;;20.30;66.90;;;;;;5030283;28;20398;-56
2021/05/24 10:47:15;;;;;;;2.47;0.50;;;20.30;63.50;;;;;;5041489;28;20455;-55
2021/05/24 10:50:01;;;;;;;1.85;0.60;;;20.20;63.20;;;;;;5043656;28;20021;-49
2021/05/24 10:52:27;;;;;;;;;;;20.20;63.60;;;;;;5047967;28;20036;-52
2021/05/24 10:54:52;;;;;;;3.22;0.50;;;20.30;65.20;;;;;;5046669;28;20406;-51
2021/05/24 10:57:19;;;;;;;0.77;0.50;;;20.40;64.40;;;;;;5046017;28;20441;-50
2021/05/24 10:59:51;;;;;;;2.50;0.70;;;20.50;63.40;;;;;;5049486;28;20025;-55
2021/05/24 11:02:28;;;;;;;3.60;0.77;;;20.40;63.30;;;;;;5048105;28;20029;-52
2021/05/24 11:05:13;;;;;;;2.00;0.75;;;20.40;62.90;;;;;;5022830;28;20449;-53
2021/05/24 11:07:43;;;;;;;3.25;0.75;;;20.30;65.40;;;;;;5038328;28;20501;-55
2021/05/24 11:10:16;;;;;;;1.80;0.77;;;20.30;61.00;;;;;;5051557;28;20028;-56
2021/05/24 11:12:43;;;;;;;2.20;0.98;;;20.30;61.00;;;;;;5074513;22;20350;-46
2021/05/24 11:15:13;;;;;;;1.33;0.63;;;20.30;62.10;;;;;;5109830;28;20569;-48
2021/05/24 11:18:01;;;;;;;2.08;0.50;;;20.40;57.10;;;;;;5093151;28;20152;-52
2021/05/24 11:20:26;;;;;;;0.82;0.60;;;20.40;58.60;;;;;;5091179;28;20051;-52
2021/05/24 11:26:18;;;;;;;1.85;0.80;;;20.30;59.20;;;;;;5101975;28;20035;-48
2021/05/24 11:28:50;;;;;;;1.95;0.80;;;20.30;60.70;;;;;;5070830;28;20485;-51
2021/05/24 11:31:22;;;;;;;0.70;0.70;;;20.30;60.00;;;;;;5070933;28;20066;-47
2021/05/24 11:33:48;;;;;;;1.20;0.82;;;20.30;59.10;;;;;;5070041;28;20032;-51
2021/05/24 11:36:15;;;;;;;1.65;0.93;;;20.40;61.40;;;;;;5070673;28;20024;-50
2021/05/24 11:39:06;;;;;;;1.75;1.00;;;20.30;59.60;;;;;;5052627;28;20488;-49
2021/05/24 11:41:32;;;;;;;5.32;1.15;;;20.40;59.60;;;;;;5068909;28;20024;-51
2021/05/24 11:44:01;;;;;;;4.18;0.90;;;20.20;59.70;;;;;;5070057;28;20485;-52
2021/05/24 11:46:48;;;;;;;2.38;0.80;;;20.20;60.50;;;;;;5052678;28;20016;-48
2021/05/24 11:49:15;;;;;;;0.90;0.55;;;20.00;59.40;;;;;;5052770;28;20025;-47
2021/05/24 11:51:42;;;;;;;4.05;0.90;;;19.90;59.70;;;;;;5070509;28;20012;-50
2021/05/24 11:54:12;;;;;;;4.03;0.63;;;20.00;61.40;;;;;;5069442;28;20106;-49
2021/05/24 11:56:47;;;;;;;3.00;0.70;;;20.10;61.70;;;;;;5070575;28;20024;-47
2021/05/24 11:59:15;;;;;;;1.48;0.88;;;20.10;60.70;;;;;;5070146;28;20462;-50
2021/05/24 12:01:43;;;;;;;2.75;0.77;;;20.20;60.50;;;;;;5052550;28;20097;-44
2021/05/24 12:04:17;;;;;;;3.65;1.05;;;20.10;59.60;;;;;;5069958;28;20024;-48
2021/05/24 12:06:58;;;;;;;2.08;0.80;;;20.00;60.50;;;;;;5070412;28;20507;-49
2021/05/24 12:09:44;;;;;;;1.40;0.80;;;20.10;58.90;;;;;;5070441;28;20040;-49
2021/05/24 12:12:23;;;;;;;;;;;20.10;60.20;;;;;;5070720;28;20017;-44
2021/05/24 12:14:51;;;;;;;7.03;0.80;;;20.20;61.00;;;;;;5070147;28;20009;-49
2021/05/24 12:17:23;;;;;;;1.35;0.60;;;20.30;59.50;;;;;;5070694;28;20024;-52
2021/05/24 12:19:52;;;;;;;3.08;0.60;;;20.40;59.20;;;;;;5075410;28;20111;-47
2021/05/24 12:22:19;;;;;;;1.25;0.73;;;20.50;59.20;;;;;;5071994;28;20025;-45
2021/05/24 12:24:47;;;;;;;0.88;0.60;;;20.60;60.90;;;;;;5052055;28;20101;-48
2021/05/24 12:27:15;;;;;;;1.45;0.70;;;20.60;59.80;;;;;;5070688;28;20031;-48
2021/05/24 12:29:53;;;;;;;2.53;0.70;;;20.50;60.20;;;;;;5070426;28;20025;-51
2021/05/24 12:32:36;;;;;;;1.02;0.60;;;20.60;61.20;;;;;;5070165;28;20102;-52
2021/05/24 12:35:08;;;;;;;1.02;0.70;;;20.40;60.20;;;;;;5070279;28;20070;-48
2021/05/24 12:37:35;;;;;;;0.65;0.60;;;20.50;60.70;;;;;;5052518;28;20397;-47
2021/05/24 12:40:10;;;;;;;3.35;0.90;;;20.40;58.40;;;;;;5051479;28;20020;-49
2021/05/24 12:42:38;;;;;;;1.30;0.83;;;20.30;59.50;;;;;;5070069;28;20489;-53
2021/05/24 12:45:11;;;;;;;3.75;0.68;;;20.30;60.50;;;;;;5070003;28;20038;-48
2021/05/24 12:47:37;;;;;;;1.08;0.70;;;20.30;61.00;;;;;;5070087;28;20056;-49
2021/05/24 12:50:15;;;;;;;1.85;0.68;;;20.30;60.40;;;;;;5069998;28;20029;-50
2021/05/24 12:52:42;;;;;;;1.70;0.80;;;20.50;62.10;;;;;;5069782;28;20029;-47
2021/05/24 12:55:14;;;;;;;1.38;0.52;;;20.50;61.10;;;;;;5069739;28;20074;-50